sensor_id;sensor_type;location;lat;lon;timestamp;pressure;altitude;pressure_sealevel;temperature;humidity
55679;BME280;41573;51.446;-2.018;2023-05-08T00:01:30;100128.69;;;12.14;100.00
55679;BME280;41573;51.446;-2.018;2023-05-08T00:03:56;100126.97;;;12.13;100.00
55679;BME280;41573;51.446;-2.018;2023-05-08T00:06:21;100117.25;;;12.12;100.00
55679;BME280;41573;51.446;-2.018;2023-05-08T00:08:46;100090.44;;;12.14;100.00
55679;BME280;41573;51.446;-2.018;2023-05-08T00:11:12;100081.34;;;12.16;100.00
55679;BME280;41573;51.446;-2.018;2023-05-08T00:13:38;100068.53;;;12.21;100.00
55679;BME280;41573;51.446;-2.018;2023-05-08T00:16:08;100056.78;;;12.24;100.00
55679;BME280;41573;51.446;-2.018;2023-05-08T00:18:35;100049.47;;;12.26;100.00
55679;BME280;41573;51.446;-2.018;2023-05-08T00:21:03;100038.69;;;12.28;100.00
55679;BME280;41573;51.446;-2.018;2023-05-08T00:23:28;100023.41;;;12.30;100.00
55679;BME280;41573;51.446;-2.018;2023-05-08T00:25:53;100024.38;;;12.29;100.00
55679;BME280;41573;51.446;-2.018;2023-05-08T00:28:19;100016.97;;;12.32;100.00
55679;BME280;41573;51.446;-2.018;2023-05-08T00:30:45;100012.63;;;12.31;100.00
55679;BME280;41573;51.446;-2.018;2023-05-08T00:33:10;100001.94;;;12.31;100.00
55679;BME280;41573;51.446;-2.018;2023-05-08T00:35:35;100003.25;;;12.26;100.00
55679;BME280;41573;51.446;-2.018;2023-05-08T00:38:01;100000.81;;;12.22;100.00
55679;BME280;41573;51.446;-2.018;2023-05-08T00:40:26;99990.47;;;12.18;100.00
55679;BME280;41573;51.446;-2.018;2023-05-08T00:42:52;99990.84;;;12.13;100.00
55679;BME280;41573;51.446;-2.018;2023-05-08T00:45:17;99985.50;;;12.13;100.00
55679;BME280;41573;51.446;-2.018;2023-05-08T00:47:43;99978.56;;;12.11;100.00
55679;BME280;41573;51.446;-2.018;2023-05-08T00:50:09;99976.03;;;12.09;100.00
55679;BME280;41573;51.446;-2.018;2023-05-08T00:52:34;99966.53;;;12.05;100.00
55679;BME280;41573;51.446;-2.018;2023-05-08T00:55:01;99977.44;;;12.02;100.00
55679;BME280;41573;51.446;-2.018;2023-05-08T00:57:31;99961.91;;;11.96;100.00
55679;BME280;41573;51.446;-2.018;2023-05-08T00:59:59;99971.94;;;11.92;100.00
55679;BME280;41573;51.446;-2.018;2023-05-08T01:02:25;99964.03;;;11.90;100.00
55679;BME280;41573;51.446;-2.018;2023-05-08T01:04:52;99972.03;;;11.90;100.00
55679;BME280;41573;51.446;-2.018;2023-05-08T01:07:18;99971.94;;;11.92;100.00
55679;BME280;41573;51.446;-2.018;2023-05-08T01:09:43;99961.06;;;11.95;100.00
55679;BME280;41573;51.446;-2.018;2023-05-08T01:12:17;99960.94;;;11.97;100.00
55679;BME280;41573;51.446;-2.018;2023-05-08T01:23:21;99951.47;;;11.93;100.00
55679;BME280;41573;51.446;-2.018;2023-05-08T01:31:16;99949.75;;;11.92;100.00
55679;BME280;41573;51.446;-2.018;2023-05-08T01:34:05;99951.66;;;11.89;100.00
55679;BME280;41573;51.446;-2.018;2023-05-08T01:39:17;99949.47;;;11.83;100.00
55679;BME280;41573;51.446;-2.018;2023-05-08T01:42:08;99954.53;;;11.75;100.00
55679;BME280;41573;51.446;-2.018;2023-05-08T01:44:42;99959.13;;;11.73;100.00
55679;BME280;41573;51.446;-2.018;2023-05-08T01:47:10;99928.22;;;11.70;100.00
55679;BME280;41573;51.446;-2.018;2023-05-08T01:49:43;99908.47;;;11.73;100.00
55679;BME280;41573;51.446;-2.018;2023-05-08T01:52:31;99915.50;;;11.74;100.00
55679;BME280;41573;51.446;-2.018;2023-05-08T01:55:00;99909.41;;;11.72;100.00
55679;BME280;41573;51.446;-2.018;2023-05-08T01:57:28;99911.84;;;11.75;100.00
55679;BME280;41573;51.446;-2.018;2023-05-08T01:59:56;99908.09;;;11.78;100.00
55679;BME280;41573;51.446;-2.018;2023-05-08T02:02:26;99905.31;;;11.79;100.00
55679;BME280;41573;51.446;-2.018;2023-05-08T02:04:53;99903.72;;;11.77;100.00
55679;BME280;41573;51.446;-2.018;2023-05-08T02:07:22;99888.59;;;11.77;100.00
55679;BME280;41573;51.446;-2.018;2023-05-08T02:09:48;99874.25;;;11.78;100.00
55679;BME280;41573;51.446;-2.018;2023-05-08T02:12:16;99858.38;;;11.77;100.00
55679;BME280;41573;51.446;-2.018;2023-05-08T02:14:44;99857.16;;;11.81;100.00
55679;BME280;41573;51.446;-2.018;2023-05-08T02:17:10;99846.63;;;11.79;100.00
55679;BME280;41573;51.446;-2.018;2023-05-08T02:19:38;99843.72;;;11.82;100.00
55679;BME280;41573;51.446;-2.018;2023-05-08T02:22:06;99835.72;;;11.82;100.00
55679;BME280;41573;51.446;-2.018;2023-05-08T02:24:33;99829.66;;;11.80;100.00
55679;BME280;41573;51.446;-2.018;2023-05-08T02:27:00;99827.72;;;11.82;100.00
55679;BME280;41573;51.446;-2.018;2023-05-08T02:29:26;99827.13;;;11.79;100.00
55679;BME280;41573;51.446;-2.018;2023-05-08T02:31:53;99823.81;;;11.75;100.00
55679;BME280;41573;51.446;-2.018;2023-05-08T02:34:22;99829.91;;;11.77;100.00
55679;BME280;41573;51.446;-2.018;2023-05-08T02:36:49;99831.69;;;11.77;100.00
55679;BME280;41573;51.446;-2.018;2023-05-08T02:39:17;99817.41;;;11.78;100.00
55679;BME280;41573;51.446;-2.018;2023-05-08T02:41:44;99820.91;;;11.78;100.00
55679;BME280;41573;51.446;-2.018;2023-05-08T02:44:10;99818.47;;;11.75;100.00
55679;BME280;41573;51.446;-2.018;2023-05-08T02:46:57;99799.81;;;11.75;100.00
55679;BME280;41573;51.446;-2.018;2023-05-08T02:49:45;99797.16;;;11.75;100.00
55679;BME280;41573;51.446;-2.018;2023-05-08T02:52:17;99782.13;;;11.74;100.00
55679;BME280;41573;51.446;-2.018;2023-05-08T03:00:42;99772.03;;;11.66;100.00
55679;BME280;41573;51.446;-2.018;2023-05-08T03:03:18;99765.75;;;11.67;100.00
55679;BME280;41573;51.446;-2.018;2023-05-08T03:05:50;99772.88;;;11.67;100.00
55679;BME280;41573;51.446;-2.018;2023-05-08T03:08:21;99768.16;;;11.70;100.00
55679;BME280;41573;51.446;-2.018;2023-05-08T03:10:50;99748.88;;;11.67;100.00
55679;BME280;41573;51.446;-2.018;2023-05-08T03:13:17;99737.38;;;11.66;100.00
55679;BME280;41573;51.446;-2.018;2023-05-08T03:16:05;99731.91;;;11.68;100.00
55679;BME280;41573;51.446;-2.018;2023-05-08T03:18:41;99723.19;;;11.66;100.00
55679;BME280;41573;51.446;-2.018;2023-05-08T03:21:08;99726.13;;;11.63;100.00
55679;BME280;41573;51.446;-2.018;2023-05-08T03:23:37;99729.13;;;11.58;100.00
55679;BME280;41573;51.446;-2.018;2023-05-08T03:26:05;99722.22;;;11.55;100.00
55679;BME280;41573;51.446;-2.018;2023-05-08T03:28:34;99721.34;;;11.55;100.00
55679;BME280;41573;51.446;-2.018;2023-05-08T03:31:00;99717.09;;;11.52;100.00
55679;BME280;41573;51.446;-2.018;2023-05-08T03:33:28;99719.78;;;11.52;100.00
55679;BME280;41573;51.446;-2.018;2023-05-08T03:35:55;99715.44;;;11.51;100.00
55679;BME280;41573;51.446;-2.018;2023-05-08T03:38:21;99725.59;;;11.46;100.00
55679;BME280;41573;51.446;-2.018;2023-05-08T03:40:47;99715.41;;;11.40;100.00
55679;BME280;41573;51.446;-2.018;2023-05-08T03:43:14;99701.34;;;11.38;100.00
55679;BME280;41573;51.446;-2.018;2023-05-08T03:45:40;99708.50;;;11.37;100.00
55679;BME280;41573;51.446;-2.018;2023-05-08T03:48:07;99708.00;;;11.32;100.00
55679;BME280;41573;51.446;-2.018;2023-05-08T03:50:34;99710.78;;;11.31;100.00
55679;BME280;41573;51.446;-2.018;2023-05-08T03:53:00;99711.75;;;11.30;100.00
55679;BME280;41573;51.446;-2.018;2023-05-08T03:55:26;99714.41;;;11.30;100.00
55679;BME280;41573;51.446;-2.018;2023-05-08T03:57:58;99712.72;;;11.29;100.00
55679;BME280;41573;51.446;-2.018;2023-05-08T04:03:31;99720.22;;;11.24;100.00
55679;BME280;41573;51.446;-2.018;2023-05-08T04:06:14;99719.38;;;11.23;100.00
55679;BME280;41573;51.446;-2.018;2023-05-08T04:08:47;99714.19;;;11.21;100.00
55679;BME280;41573;51.446;-2.018;2023-05-08T04:11:29;99710.03;;;11.17;100.00
55679;BME280;41573;51.446;-2.018;2023-05-08T04:14:07;99705.78;;;11.15;100.00
55679;BME280;41573;51.446;-2.018;2023-05-08T04:16:39;99709.03;;;11.07;100.00
55679;BME280;41573;51.446;-2.018;2023-05-08T04:19:14;99703.69;;;11.07;100.00
55679;BME280;41573;51.446;-2.018;2023-05-08T04:21:43;99706.16;;;11.10;100.00
55679;BME280;41573;51.446;-2.018;2023-05-08T04:24:12;99712.84;;;11.16;100.00
55679;BME280;41573;51.446;-2.018;2023-05-08T04:26:39;99712.19;;;11.12;100.00
55679;BME280;41573;51.446;-2.018;2023-05-08T04:29:06;99713.03;;;11.13;100.00
55679;BME280;41573;51.446;-2.018;2023-05-08T04:31:33;99710.03;;;11.17;100.00
55679;BME280;41573;51.446;-2.018;2023-05-08T04:34:00;99704.72;;;11.17;100.00
55679;BME280;41573;51.446;-2.018;2023-05-08T04:36:30;99699.50;;;11.16;100.00
55679;BME280;41573;51.446;-2.018;2023-05-08T04:38:56;99706.16;;;11.10;100.00
55679;BME280;41573;51.446;-2.018;2023-05-08T04:41:21;99707.13;;;11.09;100.00
55679;BME280;41573;51.446;-2.018;2023-05-08T04:43:47;99701.03;;;11.07;100.00
55679;BME280;41573;51.446;-2.018;2023-05-08T04:46:13;99706.28;;;11.09;100.00
55679;BME280;41573;51.446;-2.018;2023-05-08T04:48:38;99708.34;;;11.16;100.00
55679;BME280;41573;51.446;-2.018;2023-05-08T04:51:04;99701.06;;;11.18;100.00
55679;BME280;41573;51.446;-2.018;2023-05-08T04:53:29;99708.09;;;11.19;100.00
55679;BME280;41573;51.446;-2.018;2023-05-08T04:55:55;99705.56;;;11.18;100.00
55679;BME280;41573;51.446;-2.018;2023-05-08T04:58:21;99703.50;;;11.21;100.00
55679;BME280;41573;51.446;-2.018;2023-05-08T05:00:47;99707.13;;;11.20;100.00
55679;BME280;41573;51.446;-2.018;2023-05-08T05:03:12;99709.81;;;11.20;100.00
55679;BME280;41573;51.446;-2.018;2023-05-08T05:05:38;99711.00;;;11.16;100.00
55679;BME280;41573;51.446;-2.018;2023-05-08T05:08:03;99709.81;;;11.20;100.00
55679;BME280;41573;51.446;-2.018;2023-05-08T05:10:28;99712.34;;;11.22;100.00
55679;BME280;41573;51.446;-2.018;2023-05-08T05:12:54;99708.72;;;11.23;100.00
55679;BME280;41573;51.446;-2.018;2023-05-08T05:15:19;99715.13;;;11.20;100.00
55679;BME280;41573;51.446;-2.018;2023-05-08T05:17:45;99711.38;;;11.23;100.00
55679;BME280;41573;51.446;-2.018;2023-05-08T05:20:11;99711.50;;;11.21;100.00
55679;BME280;41573;51.446;-2.018;2023-05-08T05:22:37;99714.66;;;11.27;100.00
55679;BME280;41573;51.446;-2.018;2023-05-08T05:25:03;99709.56;;;11.24;100.00
55679;BME280;41573;51.446;-2.018;2023-05-08T05:27:29;99706.78;;;11.25;100.00
55679;BME280;41573;51.446;-2.018;2023-05-08T05:29:56;99715.53;;;11.27;100.00
55679;BME280;41573;51.446;-2.018;2023-05-08T05:32:21;99716.34;;;11.28;100.00
55679;BME280;41573;51.446;-2.018;2023-05-08T05:34:47;99721.69;;;11.28;100.00
55679;BME280;41573;51.446;-2.018;2023-05-08T05:37:12;99727.63;;;11.31;100.00
55679;BME280;41573;51.446;-2.018;2023-05-08T05:39:37;99724.00;;;11.32;100.00
55679;BME280;41573;51.446;-2.018;2023-05-08T05:42:03;99729.81;;;11.37;100.00
55679;BME280;41573;51.446;-2.018;2023-05-08T05:44:28;99720.13;;;11.36;100.00
55679;BME280;41573;51.446;-2.018;2023-05-08T05:46:54;99715.63;;;11.37;100.00
55679;BME280;41573;51.446;-2.018;2023-05-08T05:49:19;99713.97;;;11.36;100.00
55679;BME280;41573;51.446;-2.018;2023-05-08T05:51:45;99716.63;;;11.36;100.00
55679;BME280;41573;51.446;-2.018;2023-05-08T05:54:10;99710.78;;;11.31;100.00
55679;BME280;41573;51.446;-2.018;2023-05-08T05:56:36;99715.16;;;11.32;100.00
55679;BME280;41573;51.446;-2.018;2023-05-08T05:59:01;99718.66;;;11.32;100.00
55679;BME280;41573;51.446;-2.018;2023-05-08T06:01:27;99705.69;;;11.28;100.00
55679;BME280;41573;51.446;-2.018;2023-05-08T06:03:53;99707.41;;;11.29;100.00
55679;BME280;41573;51.446;-2.018;2023-05-08T06:06:22;99707.16;;;11.32;100.00
55679;BME280;41573;51.446;-2.018;2023-05-08T06:08:47;99711.75;;;11.30;100.00
55679;BME280;41573;51.446;-2.018;2023-05-08T06:11:16;99714.78;;;11.36;100.00
55679;BME280;41573;51.446;-2.018;2023-05-08T06:13:41;99711.03;;;11.39;100.00
55679;BME280;41573;51.446;-2.018;2023-05-08T06:16:08;99710.94;;;11.41;100.00
55679;BME280;41573;51.446;-2.018;2023-05-08T06:18:33;99715.41;;;11.40;100.00
55679;BME280;41573;51.446;-2.018;2023-05-08T06:20:59;99701.47;;;11.36;100.00
55679;BME280;41573;51.446;-2.018;2023-05-08T06:23:28;99708.25;;;11.41;100.00
55679;BME280;41573;51.446;-2.018;2023-05-08T06:25:53;99706.69;;;11.38;100.00
55679;BME280;41573;51.446;-2.018;2023-05-08T06:28:26;99710.94;;;11.41;100.00
55679;BME280;41573;51.446;-2.018;2023-05-08T06:30:58;99717.09;;;11.41;100.00
55679;BME280;41573;51.446;-2.018;2023-05-08T06:33:24;99718.22;;;11.38;100.00
55679;BME280;41573;51.446;-2.018;2023-05-08T06:35:49;99715.88;;;11.34;100.00
55679;BME280;41573;51.446;-2.018;2023-05-08T06:38:15;99720.84;;;11.27;100.00
55679;BME280;41573;51.446;-2.018;2023-05-08T06:40:44;99730.41;;;11.30;100.00
55679;BME280;41573;51.446;-2.018;2023-05-08T06:43:11;99722.28;;;11.31;100.00
55679;BME280;41573;51.446;-2.018;2023-05-08T06:45:36;99736.47;;;11.32;100.00
55679;BME280;41573;51.446;-2.018;2023-05-08T06:48:02;99748.72;;;11.34;100.00
55679;BME280;41573;51.446;-2.018;2023-05-08T06:50:28;99749.31;;;11.38;100.00
55679;BME280;41573;51.446;-2.018;2023-05-08T06:52:53;99760.00;;;11.38;100.00
55679;BME280;41573;51.446;-2.018;2023-05-08T06:55:21;99764.88;;;11.44;100.00
55679;BME280;41573;51.446;-2.018;2023-05-08T06:57:47;99766.53;;;11.45;100.00
55679;BME280;41573;51.446;-2.018;2023-05-08T07:00:12;99784.38;;;11.45;100.00
55679;BME280;41573;51.446;-2.018;2023-05-08T07:02:38;99803.75;;;11.47;100.00
55679;BME280;41573;51.446;-2.018;2023-05-08T07:05:04;99814.28;;;11.48;100.00
55679;BME280;41573;51.446;-2.018;2023-05-08T07:07:30;99832.75;;;11.51;100.00
55679;BME280;41573;51.446;-2.018;2023-05-08T07:09:55;99833.72;;;11.50;100.00
55679;BME280;41573;51.446;-2.018;2023-05-08T07:12:21;99855.75;;;11.52;100.00
55679;BME280;41573;51.446;-2.018;2023-05-08T07:14:46;99867.91;;;11.56;100.00
55679;BME280;41573;51.446;-2.018;2023-05-08T07:17:11;99894.69;;;11.55;100.00
55679;BME280;41573;51.446;-2.018;2023-05-08T07:19:37;99914.00;;;11.59;100.00
55679;BME280;41573;51.446;-2.018;2023-05-08T07:22:03;99921.00;;;11.60;100.00
55679;BME280;41573;51.446;-2.018;2023-05-08T07:24:34;99942.84;;;11.65;100.00
55679;BME280;41573;51.446;-2.018;2023-05-08T07:26:59;99957.63;;;11.58;100.00
55679;BME280;41573;51.446;-2.018;2023-05-08T07:29:25;99976.81;;;11.63;100.00
55679;BME280;41573;51.446;-2.018;2023-05-08T07:31:51;99986.38;;;11.65;100.00
55679;BME280;41573;51.446;-2.018;2023-05-08T07:34:16;100016.00;;;11.73;100.00
55679;BME280;41573;51.446;-2.018;2023-05-08T07:36:42;100028.97;;;11.78;100.00
55679;BME280;41573;51.446;-2.018;2023-05-08T07:39:07;100050.31;;;11.78;100.00
55679;BME280;41573;51.446;-2.018;2023-05-08T07:41:33;100088.19;;;11.83;100.00
55679;BME280;41573;51.446;-2.018;2023-05-08T07:44:00;100115.94;;;11.81;100.00
55679;BME280;41573;51.446;-2.018;2023-05-08T07:46:26;100148.53;;;11.73;100.00
55679;BME280;41573;51.446;-2.018;2023-05-08T07:48:52;100154.47;;;11.77;100.00
55679;BME280;41573;51.446;-2.018;2023-05-08T07:51:20;100163.47;;;11.76;100.00
55679;BME280;41573;51.446;-2.018;2023-05-08T07:53:46;100103.59;;;11.80;100.00
55679;BME280;41573;51.446;-2.018;2023-05-08T07:56:35;100091.09;;;11.80;100.00
55679;BME280;41573;51.446;-2.018;2023-05-08T07:59:01;100090.16;;;11.81;100.00
55679;BME280;41573;51.446;-2.018;2023-05-08T08:01:26;100086.72;;;11.79;100.00
55679;BME280;41573;51.446;-2.018;2023-05-08T08:03:51;100094.59;;;11.81;100.00
55679;BME280;41573;51.446;-2.018;2023-05-08T08:06:18;100105.78;;;11.62;100.00
55679;BME280;41573;51.446;-2.018;2023-05-08T08:08:43;100108.34;;;11.63;100.00
55679;BME280;41573;51.446;-2.018;2023-05-08T08:11:09;100108.22;;;11.65;100.00
55679;BME280;41573;51.446;-2.018;2023-05-08T08:13:34;100096.53;;;11.54;100.00
55679;BME280;41573;51.446;-2.018;2023-05-08T08:16:00;100098.00;;;11.59;100.00
55679;BME280;41573;51.446;-2.018;2023-05-08T08:18:28;100109.63;;;11.58;100.00
55679;BME280;41573;51.446;-2.018;2023-05-08T08:20:54;100122.72;;;11.61;100.00
55679;BME280;41573;51.446;-2.018;2023-05-08T08:23:19;100118.03;;;11.64;100.00
55679;BME280;41573;51.446;-2.018;2023-05-08T08:25:45;100145.75;;;11.75;100.00
55679;BME280;41573;51.446;-2.018;2023-05-08T08:28:10;100179.25;;;11.79;100.00
55679;BME280;41573;51.446;-2.018;2023-05-08T08:30:36;100183.72;;;11.78;100.00
55679;BME280;41573;51.446;-2.018;2023-05-08T08:33:01;100209.09;;;11.84;100.00
55679;BME280;41573;51.446;-2.018;2023-05-08T08:35:28;100236.22;;;11.90;100.00
55679;BME280;41573;51.446;-2.018;2023-05-08T08:37:55;100256.31;;;11.96;100.00
55679;BME280;41573;51.446;-2.018;2023-05-08T08:40:21;100266.53;;;12.02;100.00
55679;BME280;41573;51.446;-2.018;2023-05-08T08:42:46;100290.00;;;12.10;100.00
55679;BME280;41573;51.446;-2.018;2023-05-08T08:45:12;100299.75;;;12.11;100.00
55679;BME280;41573;51.446;-2.018;2023-05-08T08:47:42;100299.63;;;12.13;100.00
55679;BME280;41573;51.446;-2.018;2023-05-08T08:50:08;100311.16;;;12.13;100.00
55679;BME280;41573;51.446;-2.018;2023-05-08T08:53:14;100309.03;;;12.18;100.00
55679;BME280;41573;51.446;-2.018;2023-05-08T08:55:36;100310.69;;;12.19;100.00
55679;BME280;41573;51.446;-2.018;2023-05-08T08:58:15;100324.38;;;12.28;100.00
55679;BME280;41573;51.446;-2.018;2023-05-08T09:00:42;100343.38;;;12.36;100.00
55679;BME280;41573;51.446;-2.018;2023-05-08T09:03:08;100386.06;;;12.49;100.00
55679;BME280;41573;51.446;-2.018;2023-05-08T09:05:34;100378.47;;;12.55;100.00
55679;BME280;41573;51.446;-2.018;2023-05-08T09:08:00;100361.03;;;12.63;100.00
55679;BME280;41573;51.446;-2.018;2023-05-08T09:10:26;100349.06;;;12.68;100.00
55679;BME280;41573;51.446;-2.018;2023-05-08T09:12:54;100327.91;;;12.65;100.00
55679;BME280;41573;51.446;-2.018;2023-05-08T09:15:20;100333.44;;;12.75;100.00
55679;BME280;41573;51.446;-2.018;2023-05-08T09:17:46;100324.06;;;12.69;100.00
55679;BME280;41573;51.446;-2.018;2023-05-08T09:20:13;100314.81;;;12.73;100.00
55679;BME280;41573;51.446;-2.018;2023-05-08T09:22:40;100301.97;;;12.79;100.00
55679;BME280;41573;51.446;-2.018;2023-05-08T09:25:06;100288.97;;;12.74;100.00
55679;BME280;41573;51.446;-2.018;2023-05-08T09:27:32;100285.72;;;12.82;100.00
55679;BME280;41573;51.446;-2.018;2023-05-08T09:30:09;100274.53;;;12.76;100.00
55679;BME280;41573;51.446;-2.018;2023-05-08T09:32:37;100259.47;;;12.75;100.00
55679;BME280;41573;51.446;-2.018;2023-05-08T09:35:05;100237.84;;;12.79;100.00
55679;BME280;41573;51.446;-2.018;2023-05-08T09:37:31;100239.91;;;12.75;100.00
55679;BME280;41573;51.446;-2.018;2023-05-08T09:40:17;100229.13;;;12.76;100.00
55679;BME280;41573;51.446;-2.018;2023-05-08T09:42:49;100243.19;;;12.79;100.00
55679;BME280;41573;51.446;-2.018;2023-05-08T09:45:33;100228.63;;;12.83;100.00
55679;BME280;41573;51.446;-2.018;2023-05-08T09:47:59;100222.81;;;12.89;100.00
55679;BME280;41573;51.446;-2.018;2023-05-08T09:50:24;100222.38;;;12.95;100.00
55679;BME280;41573;51.446;-2.018;2023-05-08T09:52:50;100205.81;;;12.90;100.00
55679;BME280;41573;51.446;-2.018;2023-05-08T09:55:16;100197.72;;;13.03;100.00
55679;BME280;41573;51.446;-2.018;2023-05-08T09:57:58;100176.84;;;13.08;100.00
55679;BME280;41573;51.446;-2.018;2023-05-08T10:00:25;100176.09;;;13.06;100.00
55679;BME280;41573;51.446;-2.018;2023-05-08T10:02:57;100182.66;;;13.13;100.00
55679;BME280;41573;51.446;-2.018;2023-05-08T10:05:31;100177.09;;;13.16;100.00
55679;BME280;41573;51.446;-2.018;2023-05-08T10:07:57;100172.72;;;13.15;100.00
55679;BME280;41573;51.446;-2.018;2023-05-08T10:10:28;100172.84;;;13.14;100.00
55679;BME280;41573;51.446;-2.018;2023-05-08T10:12:56;100159.34;;;13.15;100.00
55679;BME280;41573;51.446;-2.018;2023-05-08T10:15:24;100155.94;;;13.13;100.00
55679;BME280;41573;51.446;-2.018;2023-05-08T10:18:06;100143.44;;;13.14;100.00
55679;BME280;41573;51.446;-2.018;2023-05-08T10:20:40;100137.72;;;13.18;100.00
55679;BME280;41573;51.446;-2.018;2023-05-08T10:23:07;100152.81;;;13.19;100.00
55679;BME280;41573;51.446;-2.018;2023-05-08T10:25:44;100144.41;;;13.24;100.00
55679;BME280;41573;51.446;-2.018;2023-05-08T10:28:21;100141.25;;;13.30;100.00
55679;BME280;41573;51.446;-2.018;2023-05-08T10:30:48;100138.25;;;13.35;100.00
55679;BME280;41573;51.446;-2.018;2023-05-08T10:33:19;100141.53;;;13.50;100.00
55679;BME280;41573;51.446;-2.018;2023-05-08T10:35:45;100140.44;;;13.52;100.00
55679;BME280;41573;51.446;-2.018;2023-05-08T10:38:11;100124.63;;;13.49;100.00
55679;BME280;41573;51.446;-2.018;2023-05-08T10:40:36;100112.94;;;13.50;100.00
55679;BME280;41573;51.446;-2.018;2023-05-08T10:43:02;100113.94;;;13.49;100.00
55679;BME280;41573;51.446;-2.018;2023-05-08T10:45:29;100103.22;;;13.49;100.00
55679;BME280;41573;51.446;-2.018;2023-05-08T10:53:28;100099.34;;;13.42;100.00
55679;BME280;41573;51.446;-2.018;2023-05-08T10:55:55;100088.53;;;13.43;100.00
55679;BME280;41573;51.446;-2.018;2023-05-08T10:58:32;100067.47;;;13.39;100.00
55679;BME280;41573;51.446;-2.018;2023-05-08T11:03:32;100070.88;;;13.52;100.00
55679;BME280;41573;51.446;-2.018;2023-05-08T11:06:02;100091.44;;;13.52;100.00
55679;BME280;41573;51.446;-2.018;2023-05-08T11:08:28;100086.19;;;13.61;100.00
55679;BME280;41573;51.446;-2.018;2023-05-08T11:13:27;100043.28;;;13.52;100.00
55679;BME280;41573;51.446;-2.018;2023-05-08T11:15:52;100044.25;;;13.51;100.00
55679;BME280;41573;51.446;-2.018;2023-05-08T11:18:18;100044.25;;;13.51;100.00
55679;BME280;41573;51.446;-2.018;2023-05-08T11:21:19;100037.97;;;13.40;100.00
55679;BME280;41573;51.446;-2.018;2023-05-08T11:23:55;100034.28;;;13.41;100.00
55679;BME280;41573;51.446;-2.018;2023-05-08T11:26:37;99997.09;;;13.38;100.00
55679;BME280;41573;51.446;-2.018;2023-05-08T11:29:15;100010.22;;;13.41;100.00
55679;BME280;41573;51.446;-2.018;2023-05-08T11:31:51;100027.63;;;13.36;100.00
55679;BME280;41573;51.446;-2.018;2023-05-08T11:34:45;100021.53;;;13.34;100.00
55679;BME280;41573;51.446;-2.018;2023-05-08T11:37:22;100001.88;;;13.35;100.00
55679;BME280;41573;51.446;-2.018;2023-05-08T11:39:48;100012.06;;;13.41;100.00
55679;BME280;41573;51.446;-2.018;2023-05-08T11:45:07;99986.63;;;13.47;100.00
55679;BME280;41573;51.446;-2.018;2023-05-08T11:47:41;99980.94;;;13.40;100.00
55679;BME280;41573;51.446;-2.018;2023-05-08T11:50:07;99978.75;;;13.45;100.00
55679;BME280;41573;51.446;-2.018;2023-05-08T11:52:38;99977.66;;;13.48;100.00
55679;BME280;41573;51.446;-2.018;2023-05-08T11:55:11;99982.81;;;13.60;100.00
55679;BME280;41573;51.446;-2.018;2023-05-08T11:57:39;99977.09;;;13.65;100.00
55679;BME280;41573;51.446;-2.018;2023-05-08T12:00:06;99992.25;;;13.76;100.00
55679;BME280;41573;51.446;-2.018;2023-05-08T12:02:42;99970.91;;;13.86;100.00
55679;BME280;41573;51.446;-2.018;2023-05-08T12:05:10;99958.53;;;13.85;100.00
55679;BME280;41573;51.446;-2.018;2023-05-08T12:07:45;99941.28;;;13.77;100.00
55679;BME280;41573;51.446;-2.018;2023-05-08T12:10:11;99938.75;;;13.76;100.00
55679;BME280;41573;51.446;-2.018;2023-05-08T12:12:42;99938.84;;;13.74;100.00
55679;BME280;41573;51.446;-2.018;2023-05-08T12:15:10;99929.72;;;13.77;100.00
55679;BME280;41573;51.446;-2.018;2023-05-08T12:17:36;99930.72;;;13.76;100.00
55679;BME280;41573;51.446;-2.018;2023-05-08T12:20:13;99922.38;;;13.90;100.00
55679;BME280;41573;51.446;-2.018;2023-05-08T12:22:49;99921.84;;;13.96;100.00
55679;BME280;41573;51.446;-2.018;2023-05-08T12:25:15;99908.25;;;14.09;100.00
55679;BME280;41573;51.446;-2.018;2023-05-08T12:27:41;99900.34;;;14.08;100.00
55679;BME280;41573;51.446;-2.018;2023-05-08T12:30:09;99887.16;;;14.16;100.00
55679;BME280;41573;51.446;-2.018;2023-05-08T12:32:37;99876.44;;;14.16;100.00
55679;BME280;41573;51.446;-2.018;2023-05-08T12:35:09;99866.00;;;14.13;100.00
55679;BME280;41573;51.446;-2.018;2023-05-08T12:37:35;99852.34;;;14.16;100.00
55679;BME280;41573;51.446;-2.018;2023-05-08T12:40:01;99838.97;;;14.16;100.00
55679;BME280;41573;51.446;-2.018;2023-05-08T12:42:44;99842.78;;;14.23;100.00
55679;BME280;41573;51.446;-2.018;2023-05-08T12:45:21;99840.81;;;14.25;100.00
55679;BME280;41573;51.446;-2.018;2023-05-08T12:47:51;99842.66;;;14.25;100.00
55679;BME280;41573;51.446;-2.018;2023-05-08T12:50:19;99843.91;;;14.21;100.00
55679;BME280;41573;51.446;-2.018;2023-05-08T12:52:52;99843.25;;;14.28;100.00
55679;BME280;41573;51.446;-2.018;2023-05-08T12:55:25;99840.44;;;14.30;100.00
55679;BME280;41573;51.446;-2.018;2023-05-08T12:58:00;99832.53;;;14.28;100.00
55679;BME280;41573;51.446;-2.018;2023-05-08T13:00:40;99829.84;;;14.28;100.00
55679;BME280;41573;51.446;-2.018;2023-05-08T13:03:07;99804.88;;;14.28;100.00
55679;BME280;41573;51.446;-2.018;2023-05-08T13:05:40;99783.03;;;14.32;100.00
55679;BME280;41573;51.446;-2.018;2023-05-08T13:08:08;99768.97;;;14.30;100.00
55679;BME280;41573;51.446;-2.018;2023-05-08T13:10:53;99770.56;;;14.43;100.00
55679;BME280;41573;51.446;-2.018;2023-05-08T13:13:23;99758.56;;;14.37;100.00
55679;BME280;41573;51.446;-2.018;2023-05-08T13:15:50;99750.81;;;14.34;100.00
55679;BME280;41573;51.446;-2.018;2023-05-08T13:18:17;99751.63;;;14.35;100.00
55679;BME280;41573;51.446;-2.018;2023-05-08T13:20:43;99738.94;;;14.37;100.00
55679;BME280;41573;51.446;-2.018;2023-05-08T13:23:09;99734.31;;;14.39;100.00